sensor_id;sensor_type;location;lat;lon;timestamp;P1;durP1;ratioP1;P2;durP2;ratioP2
54460;SDS011;69977;49.414;11.010;2024-03-06T00:01:53;13.83;;;11.73;;
54460;SDS011;69977;49.414;11.010;2024-03-06T00:04:19;13.50;;;11.67;;
54460;SDS011;69977;49.414;11.010;2024-03-06T00:06:45;12.87;;;11.17;;
54460;SDS011;69977;49.414;11.010;2024-03-06T00:09:11;13.13;;;10.30;;
54460;SDS011;69977;49.414;11.010;2024-03-06T00:11:37;15.60;;;11.73;;
54460;SDS011;69977;49.414;11.010;2024-03-06T00:14:03;15.77;;;11.33;;
54460;SDS011;69977;49.414;11.010;2024-03-06T00:16:31;14.53;;;12.13;;
54460;SDS011;69977;49.414;11.010;2024-03-06T00:18:57;14.00;;;11.40;;
54460;SDS011;69977;49.414;11.010;2024-03-06T00:21:23;12.13;;;10.53;;
54460;SDS011;69977;49.414;11.010;2024-03-06T00:23:49;12.80;;;10.93;;
54460;SDS011;69977;49.414;11.010;2024-03-06T00:26:14;12.43;;;11.13;;
54460;SDS011;69977;49.414;11.010;2024-03-06T00:28:40;12.23;;;10.57;;
54460;SDS011;69977;49.414;11.010;2024-03-06T00:31:06;12.10;;;10.47;;
54460;SDS011;69977;49.414;11.010;2024-03-06T00:33:32;12.53;;;10.97;;
54460;SDS011;69977;49.414;11.010;2024-03-06T00:35:58;13.33;;;11.73;;
54460;SDS011;69977;49.414;11.010;2024-03-06T00:38:24;13.47;;;10.43;;
54460;SDS011;69977;49.414;11.010;2024-03-06T00:40:50;13.13;;;10.67;;
54460;SDS011;69977;49.414;11.010;2024-03-06T00:43:16;13.47;;;10.57;;
54460;SDS011;69977;49.414;11.010;2024-03-06T00:45:42;12.33;;;11.03;;
54460;SDS011;69977;49.414;11.010;2024-03-06T00:48:08;15.00;;;11.80;;
54460;SDS011;69977;49.414;11.010;2024-03-06T00:50:34;13.53;;;12.10;;
54460;SDS011;69977;49.414;11.010;2024-03-06T00:53:00;11.60;;;10.30;;
54460;SDS011;69977;49.414;11.010;2024-03-06T00:55:26;11.47;;;10.13;;
54460;SDS011;69977;49.414;11.010;2024-03-06T00:57:52;14.50;;;11.67;;
54460;SDS011;69977;49.414;11.010;2024-03-06T01:00:19;14.80;;;11.70;;
54460;SDS011;69977;49.414;11.010;2024-03-06T01:02:45;14.83;;;10.87;;
54460;SDS011;69977;49.414;11.010;2024-03-06T01:05:11;15.87;;;11.67;;
54460;SDS011;69977;49.414;11.010;2024-03-06T01:07:40;12.17;;;10.77;;
54460;SDS011;69977;49.414;11.010;2024-03-06T01:10:06;14.80;;;12.00;;
54460;SDS011;69977;49.414;11.010;2024-03-06T01:12:32;13.23;;;11.63;;
54460;SDS011;69977;49.414;11.010;2024-03-06T01:14:58;13.87;;;11.33;;
54460;SDS011;69977;49.414;11.010;2024-03-06T01:17:24;13.00;;;11.27;;
54460;SDS011;69977;49.414;11.010;2024-03-06T01:19:50;13.60;;;11.97;;
54460;SDS011;69977;49.414;11.010;2024-03-06T01:22:17;13.63;;;10.67;;
54460;SDS011;69977;49.414;11.010;2024-03-06T01:24:43;13.97;;;10.77;;
54460;SDS011;69977;49.414;11.010;2024-03-06T01:27:10;14.37;;;12.53;;
54460;SDS011;69977;49.414;11.010;2024-03-06T01:29:36;14.53;;;11.97;;
54460;SDS011;69977;49.414;11.010;2024-03-06T01:32:02;15.20;;;12.50;;
54460;SDS011;69977;49.414;11.010;2024-03-06T01:34:28;15.60;;;10.87;;
54460;SDS011;69977;49.414;11.010;2024-03-06T01:36:55;13.67;;;11.57;;
54460;SDS011;69977;49.414;11.010;2024-03-06T01:39:21;15.13;;;12.03;;
54460;SDS011;69977;49.414;11.010;2024-03-06T01:41:47;11.83;;;10.63;;
54460;SDS011;69977;49.414;11.010;2024-03-06T01:44:14;12.83;;;11.50;;
54460;SDS011;69977;49.414;11.010;2024-03-06T01:46:42;15.63;;;11.60;;
54460;SDS011;69977;49.414;11.010;2024-03-06T01:49:08;14.10;;;11.47;;
54460;SDS011;69977;49.414;11.010;2024-03-06T01:51:35;12.90;;;11.33;;
54460;SDS011;69977;49.414;11.010;2024-03-06T01:54:01;14.37;;;12.77;;
54460;SDS011;69977;49.414;11.010;2024-03-06T01:56:35;15.70;;;12.07;;
54460;SDS011;69977;49.414;11.010;2024-03-06T01:59:06;13.57;;;11.50;;
54460;SDS011;69977;49.414;11.010;2024-03-06T02:01:32;14.23;;;11.57;;
54460;SDS011;69977;49.414;11.010;2024-03-06T02:03:59;15.37;;;12.07;;
54460;SDS011;69977;49.414;11.010;2024-03-06T02:06:26;13.97;;;11.90;;
54460;SDS011;69977;49.414;11.010;2024-03-06T02:08:52;12.93;;;11.47;;
54460;SDS011;69977;49.414;11.010;2024-03-06T02:11:18;15.87;;;13.20;;
54460;SDS011;69977;49.414;11.010;2024-03-06T02:13:44;12.73;;;11.30;;
54460;SDS011;69977;49.414;11.010;2024-03-06T02:16:10;16.97;;;13.40;;
54460;SDS011;69977;49.414;11.010;2024-03-06T02:18:36;15.40;;;12.90;;
54460;SDS011;69977;49.414;11.010;2024-03-06T02:21:03;14.57;;;12.67;;
54460;SDS011;69977;49.414;11.010;2024-03-06T02:23:32;16.80;;;13.27;;
54460;SDS011;69977;49.414;11.010;2024-03-06T02:25:58;16.97;;;13.60;;
54460;SDS011;69977;49.414;11.010;2024-03-06T02:28:24;14.57;;;12.10;;
54460;SDS011;69977;49.414;11.010;2024-03-06T02:30:50;14.10;;;11.33;;
54460;SDS011;69977;49.414;11.010;2024-03-06T02:33:16;16.53;;;12.90;;
54460;SDS011;69977;49.414;11.010;2024-03-06T02:35:45;17.20;;;12.97;;
54460;SDS011;69977;49.414;11.010;2024-03-06T02:38:11;16.33;;;13.90;;
54460;SDS011;69977;49.414;11.010;2024-03-06T02:40:37;17.90;;;14.10;;
54460;SDS011;69977;49.414;11.010;2024-03-06T02:43:05;16.73;;;14.83;;
54460;SDS011;69977;49.414;11.010;2024-03-06T02:45:30;20.80;;;15.63;;
54460;SDS011;69977;49.414;11.010;2024-03-06T02:47:56;17.83;;;14.87;;
54460;SDS011;69977;49.414;11.010;2024-03-06T02:50:22;21.03;;;14.23;;
54460;SDS011;69977;49.414;11.010;2024-03-06T02:52:48;17.03;;;14.67;;
54460;SDS011;69977;49.414;11.010;2024-03-06T02:55:16;17.17;;;14.30;;
54460;SDS011;69977;49.414;11.010;2024-03-06T02:57:42;15.73;;;14.03;;
54460;SDS011;69977;49.414;11.010;2024-03-06T03:00:09;17.77;;;15.07;;
54460;SDS011;69977;49.414;11.010;2024-03-06T03:02:38;20.37;;;16.03;;
54460;SDS011;69977;49.414;11.010;2024-03-06T03:05:05;18.93;;;15.20;;
54460;SDS011;69977;49.414;11.010;2024-03-06T03:07:31;19.73;;;15.83;;
54460;SDS011;69977;49.414;11.010;2024-03-06T03:09:57;18.57;;;15.27;;
54460;SDS011;69977;49.414;11.010;2024-03-06T03:12:23;21.63;;;16.87;;
54460;SDS011;69977;49.414;11.010;2024-03-06T03:14:49;18.13;;;15.57;;
54460;SDS011;69977;49.414;11.010;2024-03-06T03:17:15;17.80;;;15.70;;
54460;SDS011;69977;49.414;11.010;2024-03-06T03:19:42;17.93;;;15.37;;
54460;SDS011;69977;49.414;11.010;2024-03-06T03:22:08;17.60;;;15.27;;
54460;SDS011;69977;49.414;11.010;2024-03-06T03:24:35;20.27;;;15.37;;
54460;SDS011;69977;49.414;11.010;2024-03-06T03:27:02;20.20;;;16.30;;
54460;SDS011;69977;49.414;11.010;2024-03-06T03:29:28;19.40;;;16.57;;
54460;SDS011;69977;49.414;11.010;2024-03-06T03:31:55;21.70;;;16.30;;
54460;SDS011;69977;49.414;11.010;2024-03-06T03:34:22;20.70;;;16.13;;
54460;SDS011;69977;49.414;11.010;2024-03-06T03:36:48;19.50;;;16.27;;
54460;SDS011;69977;49.414;11.010;2024-03-06T03:39:14;24.43;;;17.10;;
54460;SDS011;69977;49.414;11.010;2024-03-06T03:41:47;22.23;;;17.87;;
54460;SDS011;69977;49.414;11.010;2024-03-06T03:44:14;23.57;;;17.67;;
54460;SDS011;69977;49.414;11.010;2024-03-06T03:46:41;21.87;;;16.87;;
54460;SDS011;69977;49.414;11.010;2024-03-06T03:49:07;21.43;;;16.33;;
54460;SDS011;69977;49.414;11.010;2024-03-06T03:51:36;23.43;;;17.57;;
54460;SDS011;69977;49.414;11.010;2024-03-06T03:54:03;21.67;;;15.87;;
54460;SDS011;69977;49.414;11.010;2024-03-06T03:56:30;22.33;;;17.93;;
54460;SDS011;69977;49.414;11.010;2024-03-06T03:58:56;21.53;;;16.30;;
54460;SDS011;69977;49.414;11.010;2024-03-06T04:01:23;23.07;;;17.70;;
54460;SDS011;69977;49.414;11.010;2024-03-06T04:03:50;22.43;;;18.03;;
54460;SDS011;69977;49.414;11.010;2024-03-06T04:06:16;21.93;;;17.47;;
54460;SDS011;69977;49.414;11.010;2024-03-06T04:08:42;23.40;;;17.07;;
54460;SDS011;69977;49.414;11.010;2024-03-06T04:11:08;22.07;;;17.10;;
54460;SDS011;69977;49.414;11.010;2024-03-06T04:13:35;21.47;;;17.70;;
54460;SDS011;69977;49.414;11.010;2024-03-06T04:16:02;23.67;;;18.33;;
54460;SDS011;69977;49.414;11.010;2024-03-06T04:18:29;19.67;;;16.80;;
54460;SDS011;69977;49.414;11.010;2024-03-06T04:21:04;24.23;;;18.37;;
54460;SDS011;69977;49.414;11.010;2024-03-06T04:23:31;24.37;;;18.10;;
54460;SDS011;69977;49.414;11.010;2024-03-06T04:25:58;22.40;;;17.93;;
54460;SDS011;69977;49.414;11.010;2024-03-06T04:28:25;21.57;;;17.67;;
54460;SDS011;69977;49.414;11.010;2024-03-06T04:30:51;23.20;;;18.53;;
54460;SDS011;69977;49.414;11.010;2024-03-06T04:33:17;23.60;;;18.77;;
54460;SDS011;69977;49.414;11.010;2024-03-06T04:35:43;22.60;;;17.77;;
54460;SDS011;69977;49.414;11.010;2024-03-06T04:38:09;23.70;;;19.10;;
54460;SDS011;69977;49.414;11.010;2024-03-06T04:40:35;22.13;;;18.33;;
54460;SDS011;69977;49.414;11.010;2024-03-06T04:43:01;27.47;;;18.73;;
54460;SDS011;69977;49.414;11.010;2024-03-06T04:45:27;23.80;;;18.90;;
54460;SDS011;69977;49.414;11.010;2024-03-06T04:47:55;30.67;;;19.67;;
54460;SDS011;69977;49.414;11.010;2024-03-06T04:50:21;24.63;;;19.30;;
54460;SDS011;69977;49.414;11.010;2024-03-06T04:52:47;25.17;;;19.70;;
54460;SDS011;69977;49.414;11.010;2024-03-06T04:55:13;23.07;;;18.47;;
54460;SDS011;69977;49.414;11.010;2024-03-06T04:57:47;29.33;;;20.20;;
54460;SDS011;69977;49.414;11.010;2024-03-06T05:00:14;26.57;;;19.10;;
54460;SDS011;69977;49.414;11.010;2024-03-06T05:02:40;25.93;;;19.47;;
54460;SDS011;69977;49.414;11.010;2024-03-06T05:05:07;25.03;;;19.80;;
54460;SDS011;69977;49.414;11.010;2024-03-06T05:07:33;26.60;;;19.93;;
54460;SDS011;69977;49.414;11.010;2024-03-06T05:09:59;29.20;;;21.40;;
54460;SDS011;69977;49.414;11.010;2024-03-06T05:12:26;27.77;;;19.77;;
54460;SDS011;69977;49.414;11.010;2024-03-06T05:14:52;26.70;;;20.23;;
54460;SDS011;69977;49.414;11.010;2024-03-06T05:17:19;27.47;;;20.27;;
54460;SDS011;69977;49.414;11.010;2024-03-06T05:19:45;27.63;;;19.13;;
54460;SDS011;69977;49.414;11.010;2024-03-06T05:22:13;25.57;;;18.77;;
54460;SDS011;69977;49.414;11.010;2024-03-06T05:24:40;27.83;;;20.47;;
54460;SDS011;69977;49.414;11.010;2024-03-06T05:27:07;27.43;;;21.07;;
54460;SDS011;69977;49.414;11.010;2024-03-06T05:29:35;27.53;;;21.20;;
54460;SDS011;69977;49.414;11.010;2024-03-06T05:32:05;28.47;;;21.37;;
54460;SDS011;69977;49.414;11.010;2024-03-06T05:34:32;28.40;;;20.67;;
54460;SDS011;69977;49.414;11.010;2024-03-06T05:37:02;29.27;;;20.90;;
54460;SDS011;69977;49.414;11.010;2024-03-06T05:39:31;29.97;;;20.93;;
54460;SDS011;69977;49.414;11.010;2024-03-06T05:42:01;30.43;;;21.17;;
54460;SDS011;69977;49.414;11.010;2024-03-06T05:44:31;29.93;;;20.17;;
54460;SDS011;69977;49.414;11.010;2024-03-06T05:47:01;30.33;;;21.90;;
54460;SDS011;69977;49.414;11.010;2024-03-06T05:49:28;29.53;;;20.73;;
54460;SDS011;69977;49.414;11.010;2024-03-06T05:51:54;27.43;;;20.10;;
54460;SDS011;69977;49.414;11.010;2024-03-06T05:54:20;28.40;;;20.30;;
54460;SDS011;69977;49.414;11.010;2024-03-06T05:56:49;31.00;;;20.27;;
54460;SDS011;69977;49.414;11.010;2024-03-06T05:59:19;27.73;;;19.83;;
54460;SDS011;69977;49.414;11.010;2024-03-06T06:01:45;29.67;;;21.03;;
54460;SDS011;69977;49.414;11.010;2024-03-06T06:04:12;27.63;;;20.50;;
54460;SDS011;69977;49.414;11.010;2024-03-06T06:06:39;29.27;;;20.93;;
54460;SDS011;69977;49.414;11.010;2024-03-06T06:09:05;28.33;;;20.50;;
54460;SDS011;69977;49.414;11.010;2024-03-06T06:11:31;27.43;;;20.07;;
54460;SDS011;69977;49.414;11.010;2024-03-06T06:14:01;28.07;;;20.70;;
54460;SDS011;69977;49.414;11.010;2024-03-06T06:16:27;28.73;;;21.53;;
54460;SDS011;69977;49.414;11.010;2024-03-06T06:19:00;25.67;;;19.97;;
54460;SDS011;69977;49.414;11.010;2024-03-06T06:21:26;27.07;;;20.13;;
54460;SDS011;69977;49.414;11.010;2024-03-06T06:23:52;30.87;;;20.97;;
54460;SDS011;69977;49.414;11.010;2024-03-06T06:26:18;30.30;;;20.93;;
54460;SDS011;69977;49.414;11.010;2024-03-06T06:28:45;35.03;;;22.77;;
54460;SDS011;69977;49.414;11.010;2024-03-06T06:31:11;29.33;;;21.53;;
54460;SDS011;69977;49.414;11.010;2024-03-06T06:33:37;30.87;;;21.00;;
54460;SDS011;69977;49.414;11.010;2024-03-06T06:36:03;31.70;;;21.43;;
54460;SDS011;69977;49.414;11.010;2024-03-06T06:38:29;29.97;;;20.73;;
54460;SDS011;69977;49.414;11.010;2024-03-06T06:40:55;37.40;;;23.03;;
54460;SDS011;69977;49.414;11.010;2024-03-06T06:43:21;27.33;;;19.73;;
54460;SDS011;69977;49.414;11.010;2024-03-06T06:45:47;33.43;;;22.37;;
54460;SDS011;69977;49.414;11.010;2024-03-06T06:48:14;34.50;;;22.13;;
54460;SDS011;69977;49.414;11.010;2024-03-06T06:50:39;34.53;;;21.67;;
54460;SDS011;69977;49.414;11.010;2024-03-06T06:53:05;32.27;;;20.67;;
54460;SDS011;69977;49.414;11.010;2024-03-06T06:55:31;30.77;;;21.87;;
54460;SDS011;69977;49.414;11.010;2024-03-06T06:57:57;29.80;;;20.97;;
54460;SDS011;69977;49.414;11.010;2024-03-06T07:00:23;32.23;;;22.53;;
54460;SDS011;69977;49.414;11.010;2024-03-06T07:02:50;30.20;;;21.60;;
54460;SDS011;69977;49.414;11.010;2024-03-06T07:05:16;34.00;;;22.90;;
54460;SDS011;69977;49.414;11.010;2024-03-06T07:07:42;34.53;;;22.47;;
54460;SDS011;69977;49.414;11.010;2024-03-06T07:10:08;33.10;;;22.67;;
54460;SDS011;69977;49.414;11.010;2024-03-06T07:12:35;30.27;;;20.23;;
54460;SDS011;69977;49.414;11.010;2024-03-06T07:15:01;33.03;;;21.67;;
54460;SDS011;69977;49.414;11.010;2024-03-06T07:17:30;37.93;;;23.57;;
54460;SDS011;69977;49.414;11.010;2024-03-06T07:19:55;34.83;;;23.27;;
54460;SDS011;69977;49.414;11.010;2024-03-06T07:22:22;31.87;;;21.47;;
54460;SDS011;69977;49.414;11.010;2024-03-06T07:24:48;33.97;;;21.43;;
54460;SDS011;69977;49.414;11.010;2024-03-06T07:27:14;30.27;;;21.80;;
54460;SDS011;69977;49.414;11.010;2024-03-06T07:29:40;30.50;;;21.73;;
54460;SDS011;69977;49.414;11.010;2024-03-06T07:32:06;32.17;;;21.80;;
54460;SDS011;69977;49.414;11.010;2024-03-06T07:34:32;29.63;;;20.53;;
54460;SDS011;69977;49.414;11.010;2024-03-06T07:36:58;29.73;;;22.17;;
54460;SDS011;69977;49.414;11.010;2024-03-06T07:39:25;29.17;;;20.17;;
54460;SDS011;69977;49.414;11.010;2024-03-06T07:41:51;30.20;;;22.13;;
54460;SDS011;69977;49.414;11.010;2024-03-06T07:44:17;30.07;;;21.07;;
54460;SDS011;69977;49.414;11.010;2024-03-06T07:46:43;31.23;;;21.47;;
54460;SDS011;69977;49.414;11.010;2024-03-06T07:49:09;31.67;;;20.93;;
54460;SDS011;69977;49.414;11.010;2024-03-06T07:51:35;28.80;;;21.73;;
54460;SDS011;69977;49.414;11.010;2024-03-06T07:54:01;31.73;;;21.83;;
54460;SDS011;69977;49.414;11.010;2024-03-06T07:56:29;29.40;;;20.57;;
54460;SDS011;69977;49.414;11.010;2024-03-06T07:58:55;30.73;;;20.10;;
54460;SDS011;69977;49.414;11.010;2024-03-06T08:01:21;27.60;;;19.33;;
54460;SDS011;69977;49.414;11.010;2024-03-06T08:03:47;25.33;;;18.83;;
54460;SDS011;69977;49.414;11.010;2024-03-06T08:06:13;29.57;;;20.27;;
54460;SDS011;69977;49.414;11.010;2024-03-06T08:08:41;25.97;;;19.60;;
54460;SDS011;69977;49.414;11.010;2024-03-06T08:11:11;28.43;;;19.97;;
54460;SDS011;69977;49.414;11.010;2024-03-06T08:13:38;26.27;;;18.37;;
54460;SDS011;69977;49.414;11.010;2024-03-06T08:16:04;23.37;;;18.47;;
54460;SDS011;69977;49.414;11.010;2024-03-06T08:18:32;24.70;;;18.93;;
54460;SDS011;69977;49.414;11.010;2024-03-06T08:20:58;25.10;;;17.97;;
54460;SDS011;69977;49.414;11.010;2024-03-06T08:23:24;25.67;;;18.80;;
54460;SDS011;69977;49.414;11.010;2024-03-06T08:25:50;24.40;;;17.40;;
54460;SDS011;69977;49.414;11.010;2024-03-06T08:28:17;21.83;;;16.30;;
54460;SDS011;69977;49.414;11.010;2024-03-06T08:30:43;25.40;;;18.13;;
54460;SDS011;69977;49.414;11.010;2024-03-06T08:33:10;21.17;;;16.80;;
54460;SDS011;69977;49.414;11.010;2024-03-06T08:35:36;24.73;;;17.53;;
54460;SDS011;69977;49.414;11.010;2024-03-06T08:38:02;23.57;;;17.43;;
54460;SDS011;69977;49.414;11.010;2024-03-06T08:40:29;21.90;;;15.53;;
54460;SDS011;69977;49.414;11.010;2024-03-06T08:42:55;21.27;;;15.90;;
54460;SDS011;69977;49.414;11.010;2024-03-06T08:45:21;21.63;;;16.73;;
54460;SDS011;69977;49.414;11.010;2024-03-06T08:47:50;22.77;;;16.07;;
54460;SDS011;69977;49.414;11.010;2024-03-06T08:50:19;15.83;;;13.63;;
54460;SDS011;69977;49.414;11.010;2024-03-06T08:52:45;21.13;;;15.47;;
54460;SDS011;69977;49.414;11.010;2024-03-06T08:55:11;20.00;;;14.67;;
54460;SDS011;69977;49.414;11.010;2024-03-06T08:57:37;18.37;;;13.73;;
54460;SDS011;69977;49.414;11.010;2024-03-06T09:00:05;19.80;;;15.10;;
54460;SDS011;69977;49.414;11.010;2024-03-06T09:02:40;21.07;;;14.87;;
54460;SDS011;69977;49.414;11.010;2024-03-06T09:05:07;20.43;;;14.57;;
54460;SDS011;69977;49.414;11.010;2024-03-06T09:07:35;18.33;;;13.73;;
54460;SDS011;69977;49.414;11.010;2024-03-06T09:10:06;20.33;;;15.30;;
54460;SDS011;69977;49.414;11.010;2024-03-06T09:12:33;19.97;;;13.83;;
54460;SDS011;69977;49.414;11.010;2024-03-06T09:14:59;20.87;;;15.20;;
54460;SDS011;69977;49.414;11.010;2024-03-06T09:17:26;23.17;;;16.10;;
54460;SDS011;69977;49.414;11.010;2024-03-06T09:19:52;19.63;;;14.43;;
54460;SDS011;69977;49.414;11.010;2024-03-06T09:22:19;19.17;;;13.70;;
54460;SDS011;69977;49.414;11.010;2024-03-06T09:24:45;17.33;;;14.67;;
54460;SDS011;69977;49.414;11.010;2024-03-06T09:27:11;17.80;;;13.67;;
54460;SDS011;69977;49.414;11.010;2024-03-06T09:29:39;18.13;;;14.07;;
54460;SDS011;69977;49.414;11.010;2024-03-06T09:32:06;19.23;;;14.23;;
54460;SDS011;69977;49.414;11.010;2024-03-06T09:34:32;19.30;;;13.70;;
54460;SDS011;69977;49.414;11.010;2024-03-06T09:36:58;18.87;;;13.60;;
54460;SDS011;69977;49.414;11.010;2024-03-06T09:39:24;17.17;;;13.17;;
54460;SDS011;69977;49.414;11.010;2024-03-06T09:41:50;16.83;;;12.70;;
54460;SDS011;69977;49.414;11.010;2024-03-06T09:44:17;20.30;;;14.37;;
54460;SDS011;69977;49.414;11.010;2024-03-06T09:46:44;19.30;;;14.47;;
54460;SDS011;69977;49.414;11.010;2024-03-06T09:49:11;17.70;;;13.67;;
54460;SDS011;69977;49.414;11.010;2024-03-06T09:51:42;19.43;;;13.67;;
54460;SDS011;69977;49.414;11.010;2024-03-06T09:54:13;20.83;;;14.63;;
54460;SDS011;69977;49.414;11.010;2024-03-06T09:56:42;16.27;;;13.37;;
54460;SDS011;69977;49.414;11.010;2024-03-06T09:59:10;17.33;;;13.40;;
54460;SDS011;69977;49.414;11.010;2024-03-06T10:04:43;17.20;;;13.10;;
54460;SDS011;69977;49.414;11.010;2024-03-06T10:07:09;20.13;;;14.30;;
54460;SDS011;69977;49.414;11.010;2024-03-06T10:09:35;19.53;;;14.03;;
54460;SDS011;69977;49.414;11.010;2024-03-06T10:12:01;18.20;;;13.37;;
54460;SDS011;69977;49.414;11.010;2024-03-06T10:14:28;19.67;;;13.53;;
54460;SDS011;69977;49.414;11.010;2024-03-06T10:16:55;18.57;;;13.37;;
54460;SDS011;69977;49.414;11.010;2024-03-06T10:19:23;20.30;;;13.73;;
54460;SDS011;69977;49.414;11.010;2024-03-06T10:21:53;17.90;;;13.13;;
54460;SDS011;69977;49.414;11.010;2024-03-06T10:24:20;17.43;;;13.43;;
54460;SDS011;69977;49.414;11.010;2024-03-06T10:26:49;19.10;;;14.40;;
54460;SDS011;69977;49.414;11.010;2024-03-06T10:29:17;18.90;;;13.60;;
54460;SDS011;69977;49.414;11.010;2024-03-06T10:32:01;17.30;;;13.50;;
54460;SDS011;69977;49.414;11.010;2024-03-06T10:34:28;16.93;;;13.20;;
54460;SDS011;69977;49.414;11.010;2024-03-06T10:36:57;16.97;;;12.80;;
54460;SDS011;69977;49.414;11.010;2024-03-06T10:39:26;19.90;;;14.20;;
54460;SDS011;69977;49.414;11.010;2024-03-06T10:41:55;18.80;;;14.37;;
54460;SDS011;69977;49.414;11.010;2024-03-06T10:44:22;17.53;;;13.03;;
54460;SDS011;69977;49.414;11.010;2024-03-06T10:47:00;20.00;;;12.37;;
54460;SDS011;69977;49.414;11.010;2024-03-06T10:49:27;17.50;;;13.53;;
54460;SDS011;69977;49.414;11.010;2024-03-06T10:51:58;19.13;;;13.33;;
54460;SDS011;69977;49.414;11.010;2024-03-06T10:54:32;17.33;;;14.13;;
54460;SDS011;69977;49.414;11.010;2024-03-06T10:57:04;18.07;;;13.27;;
54460;SDS011;69977;49.414;11.010;2024-03-06T10:59:31;18.93;;;13.77;;
54460;SDS011;69977;49.414;11.010;2024-03-06T11:01:57;17.37;;;13.40;;
54460;SDS011;69977;49.414;11.010;2024-03-06T11:04:27;19.93;;;14.47;;
54460;SDS011;69977;49.414;11.010;2024-03-06T11:06:55;19.53;;;13.70;;
54460;SDS011;69977;49.414;11.010;2024-03-06T11:09:22;18.77;;;14.17;;
54460;SDS011;69977;49.414;11.010;2024-03-06T11:11:49;19.63;;;14.10;;
54460;SDS011;69977;49.414;11.010;2024-03-06T11:14:16;21.60;;;14.33;;
54460;SDS011;69977;49.414;11.010;2024-03-06T11:19:29;19.77;;;13.87;;
54460;SDS011;69977;49.414;11.010;2024-03-06T11:22:14;19.33;;;14.53;;
54460;SDS011;69977;49.414;11.010;2024-03-06T11:24:41;18.80;;;13.57;;
54460;SDS011;69977;49.414;11.010;2024-03-06T11:27:07;19.63;;;13.73;;
54460;SDS011;69977;49.414;11.010;2024-03-06T11:32:36;17.27;;;12.70;;
54460;SDS011;69977;49.414;11.010;2024-03-06T11:35:22;16.77;;;12.73;;
54460;SDS011;69977;49.414;11.010;2024-03-06T11:37:49;16.27;;;12.27;;
54460;SDS011;69977;49.414;11.010;2024-03-06T11:40:26;17.10;;;12.50;;
54460;SDS011;69977;49.414;11.010;2024-03-06T11:42:52;14.07;;;11.80;;
54460;SDS011;69977;49.414;11.010;2024-03-06T11:45:19;14.87;;;10.97;;
54460;SDS011;69977;49.414;11.010;2024-03-06T11:47:59;15.67;;;11.27;;
54460;SDS011;69977;49.414;11.010;2024-03-06T11:50:27;15.47;;;11.77;;
54460;SDS011;69977;49.414;11.010;2024-03-06T11:52:55;15.53;;;11.57;;
54460;SDS011;69977;49.414;11.010;2024-03-06T11:55:22;14.63;;;11.70;;
54460;SDS011;69977;49.414;11.010;2024-03-06T11:57:50;15.17;;;12.57;;
54460;SDS011;69977;49.414;11.010;2024-03-06T12:00:20;16.50;;;12.07;;
54460;SDS011;69977;49.414;11.010;2024-03-06T12:02:48;14.07;;;11.13;;
54460;SDS011;69977;49.414;11.010;2024-03-06T12:05:15;13.57;;;11.43;;
54460;SDS011;69977;49.414;11.010;2024-03-06T12:07:51;16.13;;;12.20;;
54460;SDS011;69977;49.414;11.010;2024-03-06T12:10:17;16.70;;;12.60;;
54460;SDS011;69977;49.414;11.010;2024-03-06T12:12:43;16.20;;;11.47;;
54460;SDS011;69977;49.414;11.010;2024-03-06T12:15:10;16.40;;;12.33;;
54460;SDS011;69977;49.414;11.010;2024-03-06T12:17:47;17.67;;;12.83;;
54460;SDS011;69977;49.414;11.010;2024-03-06T12:20:17;14.63;;;11.47;;
54460;SDS011;69977;49.414;11.010;2024-03-06T12:22:49;13.43;;;10.63;;
54460;SDS011;69977;49.414;11.010;2024-03-06T12:25:20;13.70;;;11.03;;
54460;SDS011;69977;49.414;11.010;2024-03-06T12:27:47;19.70;;;12.00;;
54460;SDS011;69977;49.414;11.010;2024-03-06T12:30:17;14.43;;;11.53;;
54460;SDS011;69977;49.414;11.010;2024-03-06T12:32:44;15.70;;;11.47;;
54460;SDS011;69977;49.414;11.010;2024-03-06T12:35:10;13.17;;;10.57;;
54460;SDS011;69977;49.414;11.010;2024-03-06T12:37:36;12.57;;;10.20;;
54460;SDS011;69977;49.414;11.010;2024-03-06T12:40:03;14.00;;;10.73;;
54460;SDS011;69977;49.414;11.010;2024-03-06T12:42:30;11.30;;;9.40;;
54460;SDS011;69977;49.414;11.010;2024-03-06T12:44:56;14.23;;;10.43;;
54460;SDS011;69977;49.414;11.010;2024-03-06T12:47:22;13.17;;;10.13;;
54460;SDS011;69977;49.414;11.010;2024-03-06T12:49:48;12.53;;;9.77;;
54460;SDS011;69977;49.414;11.010;2024-03-06T12:52:16;12.13;;;9.97;;
54460;SDS011;69977;49.414;11.010;2024-03-06T12:54:42;12.40;;;9.53;;
54460;SDS011;69977;49.414;11.010;2024-03-06T12:57:07;11.43;;;9.37;;
54460;SDS011;69977;49.414;11.010;2024-03-06T12:59:33;10.67;;;8.67;;
54460;SDS011;69977;49.414;11.010;2024-03-06T13:01:59;12.40;;;10.07;;
54460;SDS011;69977;49.414;11.010;2024-03-06T13:04:25;12.73;;;9.87;;
54460;SDS011;69977;49.414;11.010;2024-03-06T13:06:51;11.60;;;9.20;;
54460;SDS011;69977;49.414;11.010;2024-03-06T13:09:17;11.23;;;8.80;;
54460;SDS011;69977;49.414;11.010;2024-03-06T13:11:43;9.83;;;8.83;;
54460;SDS011;69977;49.414;11.010;2024-03-06T13:14:08;11.90;;;9.23;;
54460;SDS011;69977;49.414;11.010;2024-03-06T13:16:37;11.87;;;9.20;;
54460;SDS011;69977;49.414;11.010;2024-03-06T13:19:03;12.20;;;9.83;;
54460;SDS011;69977;49.414;11.010;2024-03-06T13:21:29;11.70;;;9.50;;
54460;SDS011;69977;49.414;11.010;2024-03-06T13:23:56;12.03;;;9.50;;
54460;SDS011;69977;49.414;11.010;2024-03-06T13:26:22;10.47;;;9.27;;
54460;SDS011;69977;49.414;11.010;2024-03-06T13:28:48;11.03;;;9.60;;
54460;SDS011;69977;49.414;11.010;2024-03-06T13:31:14;12.10;;;9.70;;
54460;SDS011;69977;49.414;11.010;2024-03-06T13:33:39;11.70;;;9.50;;
54460;SDS011;69977;49.414;11.010;2024-03-06T13:36:05;13.27;;;9.37;;
54460;SDS011;69977;49.414;11.010;2024-03-06T13:38:33;10.10;;;8.77;;
54460;SDS011;69977;49.414;11.010;2024-03-06T13:40:59;11.33;;;9.37;;
54460;SDS011;69977;49.414;11.010;2024-03-06T13:43:27;10.43;;;9.20;;
54460;SDS011;69977;49.414;11.010;2024-03-06T13:45:53;12.80;;;9.67;;
54460;SDS011;69977;49.414;11.010;2024-03-06T13:48:20;11.80;;;9.73;;
54460;SDS011;69977;49.414;11.010;2024-03-06T13:50:47;11.73;;;9.97;;
54460;SDS011;69977;49.414;11.010;2024-03-06T13:53:13;12.37;;;9.90;;
54460;SDS011;69977;49.414;11.010;2024-03-06T13:55:39;11.00;;;9.50;;
54460;SDS011;69977;49.414;11.010;2024-03-06T13:58:06;11.97;;;9.77;;
54460;SDS011;69977;49.414;11.010;2024-03-06T14:00:32;11.13;;;9.93;;
54460;SDS011;69977;49.414;11.010;2024-03-06T14:03:00;11.57;;;9.57;;
54460;SDS011;69977;49.414;11.010;2024-03-06T14:05:26;11.37;;;9.57;;
54460;SDS011;69977;49.414;11.010;2024-03-06T14:07:53;13.70;;;10.00;;
54460;SDS011;69977;49.414;11.010;2024-03-06T14:10:20;12.07;;;10.27;;
54460;SDS011;69977;49.414;11.010;2024-03-06T14:12:48;12.83;;;10.53;;
54460;SDS011;69977;49.414;11.010;2024-03-06T14:15:18;12.90;;;10.00;;
54460;SDS011;69977;49.414;11.010;2024-03-06T14:17:44;12.13;;;10.43;;
54460;SDS011;69977;49.414;11.010;2024-03-06T14:20:10;11.33;;;9.57;;